createdAt,value
2018-02-05T00:00:24.481Z,1024.94
2018-02-05T00:01:24.461Z,1024.93
2018-02-05T00:02:24.530Z,1024.89
2018-02-05T00:03:24.456Z,1024.93
2018-02-05T00:04:24.441Z,1024.94
2018-02-05T00:05:24.479Z,1024.92
2018-02-05T00:06:24.486Z,1024.91
2018-02-05T00:07:24.515Z,1024.86
2018-02-05T00:08:24.505Z,1024.89
2018-02-05T00:09:24.557Z,1024.87
2018-02-05T00:10:24.502Z,1024.89
2018-02-05T00:11:24.461Z,1024.9
2018-02-05T00:12:24.502Z,1024.87
2018-02-05T00:13:24.478Z,1024.89
2018-02-05T00:14:24.430Z,1024.89
2018-02-05T00:15:24.569Z,1024.91
2018-02-05T00:16:24.503Z,1024.9
2018-02-05T00:17:24.525Z,1024.94
2018-02-05T00:18:24.499Z,1025
2018-02-05T00:19:24.520Z,1024.97
2018-02-05T00:20:24.515Z,1025
2018-02-05T00:21:24.477Z,1025.01
2018-02-05T00:22:24.459Z,1024.96
2018-02-05T00:23:24.456Z,1025.05
2018-02-05T00:24:24.497Z,1025.05
2018-02-05T00:25:24.506Z,1025.04
2018-02-05T00:26:24.755Z,1025.06
2018-02-05T00:27:24.508Z,1025.1
2018-02-05T00:28:24.490Z,1025.07
2018-02-05T00:29:24.403Z,1025.09
2018-02-05T00:30:24.417Z,1025.12
2018-02-05T00:31:24.453Z,1025.05
2018-02-05T00:32:24.464Z,1025.12
2018-02-05T00:33:24.400Z,1025.08
2018-02-05T00:34:24.466Z,1025.03
2018-02-05T00:35:24.473Z,1025.07
2018-02-05T00:36:24.425Z,1025.09
2018-02-05T00:37:24.445Z,1025.13
2018-02-05T00:38:24.412Z,1025.15
2018-02-05T00:39:24.477Z,1025.15
2018-02-05T00:40:24.406Z,1025.13
2018-02-05T00:41:24.412Z,1025.19
2018-02-05T00:42:24.386Z,1025.16
2018-02-05T00:43:24.516Z,1025.21
2018-02-05T00:44:24.453Z,1025.23
2018-02-05T00:45:24.389Z,1025.25
2018-02-05T00:46:24.399Z,1025.23
2018-02-05T00:47:24.465Z,1025.28
2018-02-05T00:48:24.370Z,1025.25
2018-02-05T00:49:24.445Z,1025.24
2018-02-05T00:50:24.383Z,1025.27
2018-02-05T00:51:24.412Z,1025.3
2018-02-05T00:52:24.395Z,1025.28
2018-02-05T00:53:24.359Z,1025.31
2018-02-05T00:54:24.400Z,1025.32
2018-02-05T00:55:24.394Z,1025.32
2018-02-05T00:56:24.414Z,1025.34
2018-02-05T00:57:24.410Z,1025.29
2018-02-05T00:58:24.404Z,1025.33
2018-02-05T00:59:24.435Z,1025.36
2018-02-05T01:00:24.408Z,1025.34
2018-02-05T01:01:24.369Z,1025.35
2018-02-05T01:02:24.320Z,1025.32
2018-02-05T01:03:24.346Z,1025.39
2018-02-05T01:04:24.306Z,1025.36
2018-02-05T01:05:24.338Z,1025.39
2018-02-05T01:06:24.380Z,1025.41
2018-02-05T01:07:24.336Z,1025.39
2018-02-05T01:08:24.329Z,1025.37
2018-02-05T01:09:24.364Z,1025.35
2018-02-05T01:10:24.292Z,1025.35
2018-02-05T01:11:24.347Z,1025.4
2018-02-05T01:12:24.296Z,1025.43
2018-02-05T01:13:24.324Z,1025.44
2018-02-05T01:14:24.352Z,1025.45
2018-02-05T01:15:24.355Z,1025.44
2018-02-05T01:16:24.334Z,1025.43
2018-02-05T01:17:24.358Z,1025.47
2018-02-05T01:18:24.364Z,1025.48
2018-02-05T01:19:24.380Z,1025.5
2018-02-05T01:20:24.386Z,1025.46
2018-02-05T01:21:24.299Z,1025.48
2018-02-05T01:22:24.295Z,1025.53
2018-02-05T01:23:24.337Z,1025.51
2018-02-05T01:24:24.298Z,1025.49
2018-02-05T01:25:24.330Z,1025.53
2018-02-05T01:26:24.284Z,1025.53
2018-02-05T01:27:24.332Z,1025.56
2018-02-05T01:28:24.344Z,1025.55
2018-02-05T01:29:24.311Z,1025.54
2018-02-05T01:30:24.319Z,1025.56
2018-02-05T01:31:24.328Z,1025.54
2018-02-05T01:32:24.232Z,1025.56
2018-02-05T01:35:24.218Z,1025.58
2018-02-05T01:36:24.228Z,1025.56
2018-02-05T01:37:24.185Z,1025.6
2018-02-05T01:38:24.213Z,1025.57
2018-02-05T01:39:24.351Z,1025.53
2018-02-05T01:40:24.207Z,1025.52
2018-02-05T01:41:24.225Z,1025.54
2018-02-05T01:42:24.245Z,1025.55
2018-02-05T01:43:24.197Z,1025.52
2018-02-05T01:44:24.265Z,1025.54
2018-02-05T01:45:24.165Z,1025.57
2018-02-05T01:46:24.169Z,1025.58
2018-02-05T01:47:24.204Z,1025.53
2018-02-05T01:48:24.228Z,1025.49
2018-02-05T01:49:24.203Z,1025.48
2018-02-05T01:50:24.207Z,1025.51
2018-02-05T01:51:24.321Z,1025.51
2018-02-05T01:52:24.211Z,1025.51
2018-02-05T01:53:24.188Z,1025.53
2018-02-05T01:54:24.176Z,1025.51
2018-02-05T01:55:24.316Z,1025.52
2018-02-05T01:56:24.186Z,1025.54
2018-02-05T01:57:24.245Z,1025.48
2018-02-05T01:58:24.200Z,1025.53
2018-02-05T01:59:24.213Z,1025.51
2018-02-05T02:00:24.179Z,1025.52
2018-02-05T02:01:24.218Z,1025.54
2018-02-05T02:02:24.256Z,1025.55
2018-02-05T02:03:24.235Z,1025.59
2018-02-05T02:04:24.240Z,1025.57
2018-02-05T02:05:24.255Z,1025.57
2018-02-05T02:06:24.287Z,1025.56
2018-02-05T02:07:24.248Z,1025.56
2018-02-05T02:08:24.314Z,1025.61
2018-02-05T02:09:24.306Z,1025.56
2018-02-05T02:10:24.247Z,1025.61
2018-02-05T02:11:24.228Z,1025.56
2018-02-05T02:12:24.256Z,1025.63
2018-02-05T02:13:24.211Z,1025.6
2018-02-05T02:14:24.273Z,1025.64
2018-02-05T02:15:24.266Z,1025.66
2018-02-05T02:16:24.218Z,1025.69
2018-02-05T02:17:24.248Z,1025.71
2018-02-05T02:18:24.294Z,1025.71
2018-02-05T02:19:24.558Z,1025.69
2018-02-05T02:20:24.359Z,1025.78
2018-02-05T02:23:24.294Z,1025.69
2018-02-05T02:24:24.308Z,1025.73
2018-02-05T02:25:24.251Z,1025.74
2018-02-05T02:26:24.230Z,1025.73
2018-02-05T02:27:24.204Z,1025.73
2018-02-05T02:28:24.217Z,1025.76
2018-02-05T02:29:24.226Z,1025.8
2018-02-05T02:30:24.288Z,1025.82
2018-02-05T02:31:24.265Z,1025.82
2018-02-05T02:32:24.187Z,1025.86
2018-02-05T02:33:25.087Z,1025.92
2018-02-05T02:34:25.047Z,1025.89
2018-02-05T02:35:25.037Z,1025.96
2018-02-05T02:36:25.015Z,1025.91
2018-02-05T02:37:25.052Z,1025.93
2018-02-05T02:38:25.031Z,1025.92
2018-02-05T02:39:25.042Z,1025.93
2018-02-05T02:40:25.138Z,1025.91
2018-02-05T02:41:25.079Z,1025.98
2018-02-05T02:42:25.108Z,1025.94
2018-02-05T02:43:25.001Z,1025.97
2018-02-05T02:44:25.032Z,1025.9
2018-02-05T02:45:25.040Z,1025.94
2018-02-05T02:46:25.074Z,1025.94
2018-02-05T02:47:25.071Z,1025.97
2018-02-05T02:48:25.048Z,1025.99
2018-02-05T02:50:25.076Z,1025.97
2018-02-05T02:51:25.016Z,1025.96
2018-02-05T02:52:25.120Z,1025.95
2018-02-05T02:53:25.073Z,1025.98
2018-02-05T02:54:25.036Z,1026
2018-02-05T02:55:25.059Z,1026.01
2018-02-05T02:56:25.043Z,1026
2018-02-05T02:57:25.099Z,1026.05
2018-02-05T02:58:25.025Z,1026.03
2018-02-05T02:59:25.022Z,1026.04
2018-02-05T03:00:25.029Z,1026.06
2018-02-05T03:01:25.034Z,1026.07
2018-02-05T03:02:25.070Z,1026.13
2018-02-05T03:03:25.009Z,1026.1
2018-02-05T03:04:24.971Z,1026.14
2018-02-05T03:05:25.003Z,1026.1
2018-02-05T03:06:25.042Z,1026.14
2018-02-05T03:07:25.042Z,1026.15
2018-02-05T03:08:25.022Z,1026.18
2018-02-05T03:09:24.999Z,1026.16
2018-02-05T03:10:25.016Z,1026.15
2018-02-05T03:11:25.014Z,1026.13
2018-02-05T03:12:25.023Z,1026.12
2018-02-05T03:13:25.000Z,1026.13
2018-02-05T03:14:24.997Z,1026.13
2018-02-05T03:15:25.036Z,1026.13
2018-02-05T03:16:25.030Z,1026.09
2018-02-05T03:17:25.017Z,1026.12
2018-02-05T03:18:25.012Z,1026.12
2018-02-05T03:19:25.034Z,1026.14
2018-02-05T03:20:25.030Z,1026.11
2018-02-05T03:21:25.081Z,1026.14
2018-02-05T03:22:25.026Z,1026.09
2018-02-05T03:23:25.009Z,1026.14
2018-02-05T03:24:24.971Z,1026.13
2018-02-05T03:25:25.007Z,1026.16
2018-02-05T03:26:24.978Z,1026.13
2018-02-05T03:27:25.025Z,1026.18
2018-02-05T03:28:25.058Z,1026.15
2018-02-05T03:29:24.997Z,1026.14
2018-02-05T03:30:24.990Z,1026.12
2018-02-05T03:31:25.090Z,1026.16
2018-02-05T03:32:25.052Z,1026.16
2018-02-05T03:33:25.071Z,1026.22
2018-02-05T03:34:25.113Z,1026.19
2018-02-05T03:35:25.077Z,1026.18
2018-02-05T03:36:25.097Z,1026.16
2018-02-05T03:37:25.101Z,1026.18
2018-02-05T03:38:25.057Z,1026.19
2018-02-05T03:39:25.064Z,1026.19
2018-02-05T03:40:25.099Z,1026.21
2018-02-05T03:41:25.081Z,1026.22
2018-02-05T03:42:25.091Z,1026.19
2018-02-05T03:43:25.070Z,1026.18
2018-02-05T03:44:25.050Z,1026.24
2018-02-05T03:45:25.111Z,1026.23
2018-02-05T03:46:25.129Z,1026.2
2018-02-05T03:47:25.045Z,1026.21
2018-02-05T03:48:25.118Z,1026.24
2018-02-05T03:49:25.083Z,1026.23
2018-02-05T03:50:25.073Z,1026.26
2018-02-05T03:51:25.147Z,1026.21
2018-02-05T03:52:25.049Z,1026.24
2018-02-05T03:53:25.030Z,1026.24
2018-02-05T03:54:25.328Z,1026.23
2018-02-05T03:55:25.093Z,1026.22
2018-02-05T03:56:25.015Z,1026.26
2018-02-05T03:57:25.126Z,1026.31
2018-02-05T03:58:25.085Z,1026.27
2018-02-05T03:59:25.112Z,1026.3
2018-02-05T04:00:25.130Z,1026.31
2018-02-05T04:01:25.013Z,1026.37
2018-02-05T04:02:25.046Z,1026.34
2018-02-05T04:03:25.095Z,1026.33
2018-02-05T04:04:25.049Z,1026.36
2018-02-05T04:05:25.053Z,1026.32
2018-02-05T04:06:25.034Z,1026.37
2018-02-05T04:07:25.026Z,1026.36
2018-02-05T04:08:25.085Z,1026.36
2018-02-05T04:09:25.093Z,1026.4
2018-02-05T04:10:25.085Z,1026.43
2018-02-05T04:11:25.132Z,1026.4
2018-02-05T04:12:25.070Z,1026.4
2018-02-05T04:13:25.076Z,1026.47
2018-02-05T04:14:25.082Z,1026.47
2018-02-05T04:15:25.089Z,1026.47
2018-02-05T04:16:25.024Z,1026.44
2018-02-05T04:17:25.183Z,1026.38
2018-02-05T04:18:25.060Z,1026.41
2018-02-05T04:19:25.071Z,1026.45
2018-02-05T04:20:25.086Z,1026.42
2018-02-05T04:21:25.044Z,1026.42
2018-02-05T04:22:25.045Z,1026.46
2018-02-05T04:23:25.038Z,1026.45
2018-02-05T04:24:25.077Z,1026.47
2018-02-05T04:25:25.061Z,1026.45
2018-02-05T04:26:25.080Z,1026.44
2018-02-05T04:27:25.070Z,1026.42
2018-02-05T04:28:25.048Z,1026.43
2018-02-05T04:29:25.032Z,1026.46
2018-02-05T04:30:25.166Z,1026.44
2018-02-05T04:31:25.055Z,1026.39
2018-02-05T04:32:25.486Z,1026.39
2018-02-05T04:33:25.107Z,1026.39
2018-02-05T04:34:25.065Z,1026.4
2018-02-05T04:35:25.086Z,1026.37
2018-02-05T04:36:25.085Z,1026.36
2018-02-05T04:37:25.097Z,1026.37
2018-02-05T04:38:24.996Z,1026.38
2018-02-05T04:39:25.080Z,1026.34
2018-02-05T04:40:25.121Z,1026.34
2018-02-05T04:41:25.079Z,1026.38
2018-02-05T04:42:25.040Z,1026.37
2018-02-05T04:43:25.067Z,1026.39
2018-02-05T04:44:25.043Z,1026.38
2018-02-05T04:45:25.041Z,1026.35
2018-02-05T04:46:25.046Z,1026.39
2018-02-05T04:47:25.032Z,1026.39
2018-02-05T04:48:25.075Z,1026.36
2018-02-05T04:49:25.046Z,1026.41
2018-02-05T04:50:25.068Z,1026.4
2018-02-05T04:51:25.079Z,1026.45
2018-02-05T04:52:25.079Z,1026.4
2018-02-05T04:53:25.045Z,1026.4
2018-02-05T04:54:25.044Z,1026.4
2018-02-05T04:55:25.014Z,1026.37
2018-02-05T04:56:25.024Z,1026.36
2018-02-05T04:57:25.062Z,1026.41
2018-02-05T04:58:25.048Z,1026.38
2018-02-05T04:59:25.277Z,1026.39
2018-02-05T05:00:25.208Z,1026.37
2018-02-05T05:01:25.065Z,1026.42
2018-02-05T05:02:25.063Z,1026.4
2018-02-05T05:03:25.051Z,1026.41
2018-02-05T05:04:25.171Z,1026.43
2018-02-05T05:05:24.233Z,1026.46
2018-02-05T05:06:24.226Z,1026.47
2018-02-05T05:07:24.221Z,1026.46
2018-02-05T05:08:24.184Z,1026.49
2018-02-05T05:09:24.280Z,1026.52
2018-02-05T05:10:24.230Z,1026.49
2018-02-05T05:11:24.518Z,1026.42
2018-02-05T05:12:24.254Z,1026.46
2018-02-05T05:13:24.206Z,1026.51
2018-02-05T05:14:24.274Z,1026.47
2018-02-05T05:15:24.244Z,1026.51
2018-02-05T05:16:24.255Z,1026.51
2018-02-05T05:17:24.211Z,1026.52
2018-02-05T05:18:24.210Z,1026.53
2018-02-05T05:19:24.242Z,1026.51
2018-02-05T05:20:24.303Z,1026.56
2018-02-05T05:21:24.217Z,1026.55
2018-02-05T05:22:24.247Z,1026.55
2018-02-05T05:23:24.254Z,1026.53
2018-02-05T05:24:24.225Z,1026.5
2018-02-05T05:25:24.206Z,1026.49
2018-02-05T05:26:24.279Z,1026.53
2018-02-05T05:27:24.305Z,1026.49
2018-02-05T05:28:24.224Z,1026.51
2018-02-05T05:29:24.218Z,1026.52
2018-02-05T05:30:24.227Z,1026.52
2018-02-05T05:31:24.195Z,1026.51
2018-02-05T05:32:24.239Z,1026.53
2018-02-05T05:33:24.271Z,1026.53
2018-02-05T05:34:24.270Z,1026.54
2018-02-05T05:35:24.370Z,1026.54
2018-02-05T05:36:24.397Z,1026.56
2018-02-05T05:37:24.452Z,1026.56
2018-02-05T05:38:24.489Z,1026.56
2018-02-05T05:39:24.344Z,1026.53
2018-02-05T05:40:24.379Z,1026.57
2018-02-05T05:41:24.375Z,1026.53
2018-02-05T05:42:24.381Z,1026.56
2018-02-05T05:43:24.526Z,1026.57
2018-02-05T05:44:24.367Z,1026.6
2018-02-05T05:45:24.358Z,1026.57
2018-02-05T05:46:24.365Z,1026.57
2018-02-05T05:47:24.398Z,1026.56
2018-02-05T05:48:24.546Z,1026.55
2018-02-05T05:49:24.413Z,1026.56
2018-02-05T05:50:24.306Z,1026.51
2018-02-05T05:51:24.371Z,1026.57
2018-02-05T05:52:24.493Z,1026.57
2018-02-05T05:53:24.418Z,1026.49
2018-02-05T05:54:24.360Z,1026.54
2018-02-05T05:55:24.317Z,1026.57
2018-02-05T05:56:24.344Z,1026.61
2018-02-05T05:57:24.402Z,1026.6
2018-02-05T05:58:24.311Z,1026.57
2018-02-05T05:59:24.322Z,1026.6
2018-02-05T06:00:24.416Z,1026.58
2018-02-05T06:01:24.411Z,1026.68
2018-02-05T06:02:24.446Z,1026.61
2018-02-05T06:03:24.377Z,1026.67
2018-02-05T06:04:24.371Z,1026.66
2018-02-05T06:05:24.387Z,1026.7
2018-02-05T06:06:24.374Z,1026.7
2018-02-05T06:07:24.220Z,1026.72
2018-02-05T06:08:24.312Z,1026.77
2018-02-05T06:09:24.270Z,1026.77
2018-02-05T06:10:24.250Z,1026.82
2018-02-05T06:11:24.375Z,1026.8
2018-02-05T06:12:24.341Z,1026.84
2018-02-05T06:13:24.214Z,1026.83
2018-02-05T06:14:24.248Z,1026.77
2018-02-05T06:15:24.243Z,1026.82
2018-02-05T06:16:24.202Z,1026.79
2018-02-05T06:17:24.478Z,1026.83
2018-02-05T06:18:24.261Z,1026.78
2018-02-05T06:19:24.223Z,1026.77
2018-02-05T06:20:24.233Z,1026.78
2018-02-05T06:21:24.325Z,1026.83
2018-02-05T06:22:24.248Z,1026.81
2018-02-05T06:23:24.250Z,1026.8
2018-02-05T06:24:24.259Z,1026.87
2018-02-05T06:25:24.281Z,1026.87
2018-02-05T06:26:24.295Z,1026.86
2018-02-05T06:27:24.262Z,1026.88
2018-02-05T06:28:24.263Z,1026.88
2018-02-05T06:29:24.245Z,1026.85
2018-02-05T06:30:24.234Z,1026.93
2018-02-05T06:31:24.239Z,1026.91
2018-02-05T06:32:24.225Z,1026.92
2018-02-05T06:33:24.238Z,1026.93
2018-02-05T06:34:24.262Z,1026.92
2018-02-05T06:35:24.251Z,1026.94
2018-02-05T06:36:24.256Z,1026.95
2018-02-05T06:37:24.382Z,1026.98
2018-02-05T06:38:24.360Z,1026.99
2018-02-05T06:39:24.372Z,1026.99
2018-02-05T06:40:24.403Z,1027.02
2018-02-05T06:41:24.389Z,1027.01
2018-02-05T06:42:24.433Z,1027.04
2018-02-05T06:43:24.411Z,1027.02
2018-02-05T06:44:24.440Z,1027.06
2018-02-05T06:45:24.412Z,1027.02
2018-02-05T06:46:24.398Z,1027.08
2018-02-05T06:50:24.409Z,1027.06
2018-02-05T06:51:24.360Z,1027.1
2018-02-05T06:52:24.495Z,1027.14
2018-02-05T06:53:24.388Z,1027.11
2018-02-05T06:54:24.435Z,1027.11
2018-02-05T06:55:24.399Z,1027.12
2018-02-05T06:56:24.420Z,1027.13
2018-02-05T06:57:24.424Z,1027.14
2018-02-05T06:58:24.546Z,1027.14
2018-02-05T06:59:24.452Z,1027.15
2018-02-05T07:00:24.403Z,1027.17
2018-02-05T07:01:24.365Z,1027.16
2018-02-05T07:02:24.414Z,1027.15
2018-02-05T07:03:24.361Z,1027.17
2018-02-05T07:04:24.417Z,1027.16
2018-02-05T07:05:24.444Z,1027.19
2018-02-05T07:06:24.423Z,1027.17
2018-02-05T07:07:24.470Z,1027.21
2018-02-05T07:08:24.364Z,1027.17
2018-02-05T07:09:24.437Z,1027.2
2018-02-05T07:10:24.345Z,1027.2
2018-02-05T07:11:24.360Z,1027.24
2018-02-05T07:12:24.320Z,1027.24
2018-02-05T07:13:24.307Z,1027.25
2018-02-05T07:14:24.336Z,1027.19
2018-02-05T07:15:24.365Z,1027.26
2018-02-05T07:16:24.411Z,1027.26
2018-02-05T07:17:24.313Z,1027.27
2018-02-05T07:18:24.348Z,1027.24
2018-02-05T07:19:24.358Z,1027.29
2018-02-05T07:20:24.349Z,1027.26
2018-02-05T07:21:24.395Z,1027.26
2018-02-05T07:22:24.371Z,1027.27
2018-02-05T07:23:24.330Z,1027.29
2018-02-05T07:24:24.338Z,1027.21
2018-02-05T07:25:24.347Z,1027.22
2018-02-05T07:26:24.451Z,1027.23
2018-02-05T07:27:24.405Z,1027.24
2018-02-05T07:28:24.339Z,1027.26
2018-02-05T07:29:24.362Z,1027.25
2018-02-05T07:30:24.312Z,1027.26
2018-02-05T07:31:24.408Z,1027.25
2018-02-05T07:32:24.343Z,1027.19
2018-02-05T07:33:24.360Z,1027.21
2018-02-05T07:34:24.327Z,1027.17
2018-02-05T07:35:24.373Z,1027.2
2018-02-05T07:36:24.340Z,1027.18
2018-02-05T07:37:24.401Z,1027.15
2018-02-05T07:38:24.401Z,1027.15
2018-02-05T07:39:24.374Z,1027.1
2018-02-05T07:40:24.398Z,1027.2
2018-02-05T07:41:24.416Z,1027.18
2018-02-05T07:42:24.408Z,1027.23
2018-02-05T07:43:24.429Z,1027.21
2018-02-05T07:44:24.454Z,1027.27
2018-02-05T07:45:24.415Z,1027.29
2018-02-05T07:46:24.410Z,1027.32
2018-02-05T07:47:24.656Z,1027.37
2018-02-05T07:48:24.781Z,1027.36
2018-02-05T07:49:24.487Z,1027.37
2018-02-05T07:50:24.399Z,1027.39
2018-02-05T07:51:24.501Z,1027.41
2018-02-05T07:52:24.376Z,1027.5
2018-02-05T07:53:24.407Z,1027.45
2018-02-05T07:54:24.414Z,1027.43
2018-02-05T07:55:24.536Z,1027.38
2018-02-05T07:56:24.359Z,1027.44
2018-02-05T07:57:24.424Z,1027.41
2018-02-05T07:58:24.400Z,1027.43
2018-02-05T07:59:24.448Z,1027.45
2018-02-05T08:00:24.463Z,1027.44
2018-02-05T08:01:24.408Z,1027.44
2018-02-05T08:02:24.377Z,1027.46
2018-02-05T08:03:24.434Z,1027.46
2018-02-05T08:04:24.428Z,1027.43
2018-02-05T08:05:24.421Z,1027.39
2018-02-05T08:06:24.426Z,1027.36
2018-02-05T08:07:24.389Z,1027.38
2018-02-05T08:08:24.399Z,1027.37
2018-02-05T08:09:24.654Z,1027.36
2018-02-05T08:10:24.890Z,1027.34
2018-02-05T08:11:24.649Z,1027.33
2018-02-05T08:12:24.640Z,1027.35
2018-02-05T08:13:24.665Z,1027.3
2018-02-05T08:14:24.888Z,1027.31
2018-02-05T08:15:24.732Z,1027.29
2018-02-05T08:16:24.625Z,1027.3
2018-02-05T08:17:24.704Z,1027.31
2018-02-05T08:18:24.676Z,1027.32
2018-02-05T08:19:24.645Z,1027.35
2018-02-05T08:20:24.629Z,1027.36
2018-02-05T08:21:24.747Z,1027.34
2018-02-05T08:22:24.655Z,1027.37
2018-02-05T08:23:24.677Z,1027.39
2018-02-05T08:24:24.726Z,1027.36
2018-02-05T08:25:24.675Z,1027.31
2018-02-05T08:26:24.665Z,1027.26
2018-02-05T08:27:24.713Z,1027.25
2018-02-05T08:28:24.655Z,1027.24
2018-02-05T08:29:24.619Z,1027.21
2018-02-05T08:30:24.688Z,1027.2
2018-02-05T08:31:24.716Z,1027.17
2018-02-05T08:32:24.633Z,1027.17
2018-02-05T08:33:24.649Z,1027.17
2018-02-05T08:34:24.699Z,1027.09
2018-02-05T08:35:24.668Z,1027.18
2018-02-05T08:36:24.647Z,1027.14
2018-02-05T08:37:24.640Z,1027.16
2018-02-05T08:38:24.718Z,1027.18
2018-02-05T08:39:24.668Z,1027.13
2018-02-05T08:40:24.594Z,1027.15
2018-02-05T08:41:24.579Z,1027.15
2018-02-05T08:42:24.540Z,1027.16
2018-02-05T08:43:24.563Z,1027.13
2018-02-05T08:44:24.578Z,1027.16
2018-02-05T08:45:24.620Z,1027.1
2018-02-05T08:46:24.569Z,1027.07
2018-02-05T08:47:24.587Z,1027.07
2018-02-05T08:48:24.567Z,1027.04
2018-02-05T08:49:24.526Z,1027
2018-02-05T08:50:24.635Z,1027.04
2018-02-05T08:51:24.672Z,1027.09
2018-02-05T08:52:24.544Z,1027.07
2018-02-05T08:53:24.594Z,1027.05
2018-02-05T08:54:24.559Z,1027.03
2018-02-05T08:55:24.598Z,1027.05
2018-02-05T08:56:24.752Z,1027.04
2018-02-05T08:57:24.585Z,1027.05
2018-02-05T08:58:24.605Z,1027.03
2018-02-05T08:59:24.587Z,1027.04
2018-02-05T09:00:24.594Z,1027.05
2018-02-05T09:01:24.599Z,1027.06
2018-02-05T09:02:24.646Z,1027.09
2018-02-05T09:03:24.653Z,1027.12
2018-02-05T09:04:24.655Z,1027.12
2018-02-05T09:05:24.585Z,1027.13
2018-02-05T09:06:24.691Z,1027.12
2018-02-05T09:07:24.615Z,1027.07
2018-02-05T09:08:24.583Z,1027.06
2018-02-05T09:09:25.067Z,1027.04
2018-02-05T09:10:25.051Z,1027.07
2018-02-05T09:11:25.011Z,1027.07
2018-02-05T09:12:24.975Z,1027.09
2018-02-05T09:13:24.975Z,1027.07
2018-02-05T09:14:25.080Z,1027.06
2018-02-05T09:15:25.018Z,1027.07
2018-02-05T09:16:25.024Z,1027.08
2018-02-05T09:17:25.043Z,1027.09
2018-02-05T09:18:25.030Z,1027.08
2018-02-05T09:19:25.022Z,1027.08
2018-02-05T09:20:25.047Z,1027.04
2018-02-05T09:21:24.979Z,1027
2018-02-05T09:22:25.013Z,1027.04
2018-02-05T09:23:25.128Z,1027.04
2018-02-05T09:24:25.294Z,1026.99
2018-02-05T09:25:24.986Z,1027.01
2018-02-05T09:26:24.979Z,1026.99
2018-02-05T09:27:25.122Z,1026.98
2018-02-05T09:28:25.020Z,1026.93
2018-02-05T09:29:25.055Z,1027
2018-02-05T09:30:25.012Z,1026.96
2018-02-05T09:31:25.553Z,1026.92
2018-02-05T09:32:25.023Z,1026.99
2018-02-05T09:33:25.035Z,1026.95
2018-02-05T09:34:25.001Z,1026.99
2018-02-05T09:35:25.036Z,1026.92
2018-02-05T09:36:25.030Z,1026.93
2018-02-05T09:37:25.000Z,1026.93
2018-02-05T09:38:24.971Z,1026.96
2018-02-05T09:39:24.993Z,1026.91
2018-02-05T09:40:25.008Z,1026.88
2018-02-05T09:41:24.916Z,1026.91
2018-02-05T09:42:24.865Z,1026.9
2018-02-05T09:43:24.872Z,1026.92
2018-02-05T09:44:24.871Z,1026.89
2018-02-05T09:45:24.853Z,1026.87
2018-02-05T09:46:24.858Z,1026.9
2018-02-05T09:47:24.900Z,1026.87
2018-02-05T09:48:24.889Z,1026.86
2018-02-05T09:49:24.856Z,1026.85
2018-02-05T09:50:24.845Z,1026.81
2018-02-05T09:51:24.884Z,1026.78
2018-02-05T09:52:24.877Z,1026.85
2018-02-05T09:53:24.875Z,1026.77
2018-02-05T09:54:24.892Z,1026.79
2018-02-05T09:55:24.877Z,1026.8
2018-02-05T09:56:24.849Z,1026.79
2018-02-05T09:57:24.899Z,1026.83
2018-02-05T10:00:24.901Z,1026.84
2018-02-05T10:01:24.872Z,1026.86
2018-02-05T10:02:24.878Z,1026.85
2018-02-05T10:03:26.610Z,1026.87
2018-02-05T10:04:24.822Z,1026.86
2018-02-05T10:05:24.819Z,1026.89
2018-02-05T10:06:24.916Z,1026.86
2018-02-05T10:07:24.840Z,1026.83
2018-02-05T10:08:24.816Z,1026.82
2018-02-05T10:09:24.939Z,1026.9
2018-02-05T10:10:24.865Z,1026.83
2018-02-05T10:11:25.192Z,1026.9
2018-02-05T10:12:25.222Z,1026.91
2018-02-05T10:13:25.063Z,1026.91
2018-02-05T10:14:25.088Z,1026.88
2018-02-05T10:15:25.098Z,1026.87
2018-02-05T10:16:25.180Z,1026.89
2018-02-05T10:17:25.061Z,1026.9
2018-02-05T10:18:25.149Z,1026.79
2018-02-05T10:19:25.170Z,1026.85
2018-02-05T10:20:25.123Z,1026.87
2018-02-05T10:21:25.081Z,1026.81
2018-02-05T10:22:25.097Z,1026.82
2018-02-05T10:23:25.363Z,1026.84
2018-02-05T10:24:25.108Z,1026.73
2018-02-05T10:25:25.094Z,1026.76
2018-02-05T10:26:25.088Z,1026.75
2018-02-05T10:27:25.105Z,1026.75
2018-02-05T10:28:25.229Z,1026.73
2018-02-05T10:29:25.088Z,1026.7
2018-02-05T10:30:25.151Z,1026.7
2018-02-05T10:31:25.145Z,1026.75
2018-02-05T10:32:25.130Z,1026.72
2018-02-05T10:33:25.148Z,1026.69
2018-02-05T10:34:25.074Z,1026.75
2018-02-05T10:35:25.116Z,1026.7
2018-02-05T10:36:25.156Z,1026.65
2018-02-05T10:37:25.138Z,1026.64
2018-02-05T10:38:25.131Z,1026.64
2018-02-05T10:39:25.405Z,1026.66
2018-02-05T10:40:25.063Z,1026.56
2018-02-05T10:41:24.350Z,1026.63
2018-02-05T10:42:24.446Z,1026.56
2018-02-05T10:43:24.218Z,1026.6
2018-02-05T10:44:24.393Z,1026.53
2018-02-05T10:45:24.264Z,1026.57
2018-02-05T10:46:24.361Z,1026.46
2018-02-05T10:47:24.268Z,1026.5
2018-02-05T10:48:24.182Z,1026.48
2018-02-05T10:49:24.281Z,1026.51
2018-02-05T10:50:24.271Z,1026.48
2018-02-05T10:51:24.209Z,1026.53
2018-02-05T10:52:24.287Z,1026.54
2018-02-05T10:53:24.216Z,1026.5
2018-02-05T10:54:24.245Z,1026.47
2018-02-05T10:55:24.219Z,1026.5
2018-02-05T10:56:24.347Z,1026.49
2018-02-05T10:57:24.197Z,1026.43
2018-02-05T10:58:24.209Z,1026.43
2018-02-05T10:59:24.245Z,1026.38
2018-02-05T11:00:24.255Z,1026.34
2018-02-05T11:01:24.268Z,1026.32
2018-02-05T11:02:24.249Z,1026.35
2018-02-05T11:03:24.971Z,1026.29
2018-02-05T11:04:24.211Z,1026.25
2018-02-05T11:05:24.367Z,1026.28
2018-02-05T11:06:24.349Z,1026.32
2018-02-05T11:07:24.213Z,1026.31
2018-02-05T11:08:24.264Z,1026.21
2018-02-05T11:09:24.234Z,1026.19
2018-02-05T11:10:24.261Z,1026.18
2018-02-05T11:11:24.269Z,1026.2
2018-02-05T11:12:24.144Z,1026.15
2018-02-05T11:13:24.210Z,1026.13
2018-02-05T11:14:24.278Z,1026.11
2018-02-05T11:15:24.219Z,1026.13
2018-02-05T11:16:24.251Z,1026.08
2018-02-05T11:17:24.180Z,1026.11
2018-02-05T11:18:24.195Z,1026.11
2018-02-05T11:19:24.244Z,1026.08
2018-02-05T11:20:24.175Z,1026.06
2018-02-05T11:21:24.181Z,1026.02
2018-02-05T11:22:24.179Z,1026.04
2018-02-05T11:23:24.411Z,1026.05
2018-02-05T11:24:24.241Z,1026.03
2018-02-05T11:25:24.250Z,1025.99
2018-02-05T11:26:24.286Z,1026.02
2018-02-05T11:27:24.165Z,1026
2018-02-05T11:28:24.322Z,1025.97
2018-02-05T11:29:24.342Z,1025.99
2018-02-05T11:30:24.250Z,1025.97
2018-02-05T11:31:24.165Z,1025.96
2018-02-05T11:32:24.213Z,1025.95
2018-02-05T11:33:24.192Z,1025.96
2018-02-05T11:34:24.264Z,1025.8
2018-02-05T11:35:24.154Z,1025.87
2018-02-05T11:36:24.290Z,1025.89
2018-02-05T11:37:24.476Z,1025.87
2018-02-05T11:38:24.132Z,1025.9
2018-02-05T11:39:24.650Z,1025.84
2018-02-05T11:40:24.185Z,1025.86
2018-02-05T11:41:24.195Z,1025.9
2018-02-05T11:42:24.184Z,1025.9
2018-02-05T11:43:24.159Z,1025.86
2018-02-05T11:44:24.259Z,1025.86
2018-02-05T11:45:24.164Z,1025.82
2018-02-05T11:46:24.164Z,1025.81
2018-02-05T11:47:25.348Z,1025.82
2018-02-05T11:48:25.248Z,1025.8
2018-02-05T11:49:25.152Z,1025.8
2018-02-05T11:50:25.123Z,1025.78
2018-02-05T11:51:25.165Z,1025.82
2018-02-05T11:52:25.267Z,1025.75
2018-02-05T11:53:25.146Z,1025.79
2018-02-05T11:54:25.211Z,1025.79
2018-02-05T11:55:25.263Z,1025.78
2018-02-05T11:56:25.394Z,1025.72
2018-02-05T11:57:25.627Z,1025.68
2018-02-05T11:58:25.587Z,1025.71
2018-02-05T11:59:25.223Z,1025.69
2018-02-05T12:00:25.711Z,1025.7
2018-02-05T12:01:25.952Z,1025.66
2018-02-05T12:02:25.207Z,1025.63
2018-02-05T12:03:25.510Z,1025.62
2018-02-05T12:04:25.132Z,1025.59
2018-02-05T12:05:25.320Z,1025.64
2018-02-05T12:06:25.396Z,1025.59
2018-02-05T12:07:25.163Z,1025.63
2018-02-05T12:08:25.032Z,1025.53
2018-02-05T12:09:25.687Z,1025.55
2018-02-05T12:10:25.254Z,1025.55
2018-02-05T12:11:25.660Z,1025.57
2018-02-05T12:12:25.196Z,1025.51
2018-02-05T12:13:25.023Z,1025.44
2018-02-05T12:14:24.965Z,1025.43
2018-02-05T12:15:24.942Z,1025.47
2018-02-05T12:16:25.046Z,1025.46
2018-02-05T12:17:24.917Z,1025.42
2018-02-05T12:18:25.030Z,1025.39